sensor_id;sensor_type;location;lat;lon;timestamp;P1;durP1;ratioP1;P2;durP2;ratioP2
57401;SDS011;43226;51.110;6.998;2023-11-18T00:02:10;38.50;;;15.47;;
57401;SDS011;43226;51.110;6.998;2023-11-18T00:04:36;36.57;;;15.20;;
57401;SDS011;43226;51.110;6.998;2023-11-18T00:07:01;38.83;;;15.47;;
57401;SDS011;43226;51.110;6.998;2023-11-18T00:09:26;40.77;;;16.83;;
57401;SDS011;43226;51.110;6.998;2023-11-18T00:11:51;45.00;;;14.63;;
57401;SDS011;43226;51.110;6.998;2023-11-18T00:14:16;40.40;;;16.43;;
57401;SDS011;43226;51.110;6.998;2023-11-18T00:16:43;32.97;;;13.83;;
57401;SDS011;43226;51.110;6.998;2023-11-18T00:19:08;39.80;;;15.47;;
57401;SDS011;43226;51.110;6.998;2023-11-18T00:21:34;41.20;;;14.20;;
57401;SDS011;43226;51.110;6.998;2023-11-18T00:24:01;38.83;;;15.27;;
57401;SDS011;43226;51.110;6.998;2023-11-18T00:26:26;38.50;;;13.90;;
57401;SDS011;43226;51.110;6.998;2023-11-18T00:28:51;32.10;;;14.30;;
57401;SDS011;43226;51.110;6.998;2023-11-18T00:31:16;32.87;;;14.87;;
57401;SDS011;43226;51.110;6.998;2023-11-18T00:33:41;39.13;;;15.27;;
57401;SDS011;43226;51.110;6.998;2023-11-18T00:36:07;30.63;;;13.27;;
57401;SDS011;43226;51.110;6.998;2023-11-18T00:38:32;37.93;;;14.10;;
57401;SDS011;43226;51.110;6.998;2023-11-18T00:40:57;32.37;;;13.57;;
57401;SDS011;43226;51.110;6.998;2023-11-18T00:43:23;28.00;;;12.70;;
57401;SDS011;43226;51.110;6.998;2023-11-18T00:45:48;33.23;;;12.97;;
57401;SDS011;43226;51.110;6.998;2023-11-18T00:48:13;33.67;;;13.47;;
57401;SDS011;43226;51.110;6.998;2023-11-18T00:50:39;25.93;;;10.17;;
57401;SDS011;43226;51.110;6.998;2023-11-18T00:53:04;41.97;;;13.73;;
57401;SDS011;43226;51.110;6.998;2023-11-18T00:55:30;31.80;;;12.50;;
57401;SDS011;43226;51.110;6.998;2023-11-18T00:57:56;35.17;;;13.30;;
57401;SDS011;43226;51.110;6.998;2023-11-18T01:00:21;38.80;;;14.60;;
57401;SDS011;43226;51.110;6.998;2023-11-18T01:02:47;31.17;;;13.93;;
57401;SDS011;43226;51.110;6.998;2023-11-18T01:05:13;42.07;;;14.13;;
57401;SDS011;43226;51.110;6.998;2023-11-18T01:07:38;31.20;;;12.13;;
57401;SDS011;43226;51.110;6.998;2023-11-18T01:10:04;41.27;;;14.13;;
57401;SDS011;43226;51.110;6.998;2023-11-18T01:12:29;40.10;;;13.43;;
57401;SDS011;43226;51.110;6.998;2023-11-18T01:14:55;35.83;;;13.50;;
57401;SDS011;43226;51.110;6.998;2023-11-18T01:17:20;27.70;;;9.80;;
57401;SDS011;43226;51.110;6.998;2023-11-18T01:19:46;30.60;;;10.00;;
57401;SDS011;43226;51.110;6.998;2023-11-18T01:22:12;38.57;;;13.47;;
57401;SDS011;43226;51.110;6.998;2023-11-18T01:24:37;25.43;;;9.40;;
57401;SDS011;43226;51.110;6.998;2023-11-18T01:27:02;31.07;;;13.03;;
57401;SDS011;43226;51.110;6.998;2023-11-18T01:29:27;31.73;;;13.07;;
57401;SDS011;43226;51.110;6.998;2023-11-18T01:31:52;30.93;;;12.63;;
57401;SDS011;43226;51.110;6.998;2023-11-18T01:34:20;32.07;;;12.20;;
57401;SDS011;43226;51.110;6.998;2023-11-18T01:36:46;34.13;;;13.07;;
57401;SDS011;43226;51.110;6.998;2023-11-18T01:39:12;31.27;;;13.10;;
57401;SDS011;43226;51.110;6.998;2023-11-18T01:41:38;33.97;;;13.67;;
57401;SDS011;43226;51.110;6.998;2023-11-18T01:44:03;27.03;;;12.20;;
57401;SDS011;43226;51.110;6.998;2023-11-18T01:46:29;35.40;;;13.40;;
57401;SDS011;43226;51.110;6.998;2023-11-18T01:48:54;30.77;;;12.30;;
57401;SDS011;43226;51.110;6.998;2023-11-18T01:51:20;33.80;;;14.07;;
57401;SDS011;43226;51.110;6.998;2023-11-18T01:53:48;27.07;;;12.07;;
57401;SDS011;43226;51.110;6.998;2023-11-18T01:56:15;25.30;;;12.30;;
57401;SDS011;43226;51.110;6.998;2023-11-18T01:58:40;31.37;;;12.87;;
57401;SDS011;43226;51.110;6.998;2023-11-18T02:01:06;32.00;;;12.30;;
57401;SDS011;43226;51.110;6.998;2023-11-18T02:03:33;37.13;;;13.10;;
57401;SDS011;43226;51.110;6.998;2023-11-18T02:05:58;29.97;;;12.50;;
57401;SDS011;43226;51.110;6.998;2023-11-18T02:08:23;36.57;;;12.67;;
57401;SDS011;43226;51.110;6.998;2023-11-18T02:10:53;27.60;;;12.20;;
57401;SDS011;43226;51.110;6.998;2023-11-18T02:13:24;29.63;;;11.03;;
57401;SDS011;43226;51.110;6.998;2023-11-18T02:15:55;24.50;;;10.70;;
57401;SDS011;43226;51.110;6.998;2023-11-18T02:18:23;25.27;;;11.40;;
57401;SDS011;43226;51.110;6.998;2023-11-18T02:20:49;24.63;;;12.07;;
57401;SDS011;43226;51.110;6.998;2023-11-18T02:23:14;17.87;;;8.13;;
57401;SDS011;43226;51.110;6.998;2023-11-18T02:25:44;22.93;;;11.33;;
57401;SDS011;43226;51.110;6.998;2023-11-18T02:28:10;19.93;;;8.53;;
57401;SDS011;43226;51.110;6.998;2023-11-18T02:30:35;26.03;;;10.57;;
57401;SDS011;43226;51.110;6.998;2023-11-18T02:33:22;21.47;;;9.97;;
57401;SDS011;43226;51.110;6.998;2023-11-18T02:38:39;19.33;;;9.27;;
57401;SDS011;43226;51.110;6.998;2023-11-18T02:41:06;20.60;;;10.73;;
57401;SDS011;43226;51.110;6.998;2023-11-18T02:43:34;20.63;;;9.60;;
57401;SDS011;43226;51.110;6.998;2023-11-18T02:46:00;20.23;;;10.13;;
57401;SDS011;43226;51.110;6.998;2023-11-18T02:48:26;25.80;;;10.73;;
57401;SDS011;43226;51.110;6.998;2023-11-18T02:50:53;23.93;;;10.10;;
57401;SDS011;43226;51.110;6.998;2023-11-18T02:53:19;25.33;;;10.70;;
57401;SDS011;43226;51.110;6.998;2023-11-18T02:55:44;22.07;;;10.83;;
57401;SDS011;43226;51.110;6.998;2023-11-18T02:58:09;20.03;;;9.30;;
57401;SDS011;43226;51.110;6.998;2023-11-18T03:00:34;35.10;;;10.40;;
57401;SDS011;43226;51.110;6.998;2023-11-18T03:03:00;29.60;;;9.63;;
57401;SDS011;43226;51.110;6.998;2023-11-18T03:05:25;21.10;;;10.20;;
57401;SDS011;43226;51.110;6.998;2023-11-18T03:07:51;23.57;;;9.37;;
57401;SDS011;43226;51.110;6.998;2023-11-18T03:10:18;21.03;;;10.27;;
57401;SDS011;43226;51.110;6.998;2023-11-18T03:12:50;20.13;;;9.97;;
57401;SDS011;43226;51.110;6.998;2023-11-18T03:15:16;24.40;;;10.97;;
57401;SDS011;43226;51.110;6.998;2023-11-18T03:17:50;21.37;;;10.40;;
57401;SDS011;43226;51.110;6.998;2023-11-18T03:20:16;26.00;;;12.63;;
57401;SDS011;43226;51.110;6.998;2023-11-18T03:22:44;21.30;;;9.90;;
57401;SDS011;43226;51.110;6.998;2023-11-18T03:25:10;27.00;;;10.70;;
57401;SDS011;43226;51.110;6.998;2023-11-18T03:27:35;22.63;;;11.97;;
57401;SDS011;43226;51.110;6.998;2023-11-18T03:30:00;22.03;;;10.43;;
57401;SDS011;43226;51.110;6.998;2023-11-18T03:32:26;23.50;;;9.47;;
57401;SDS011;43226;51.110;6.998;2023-11-18T03:34:51;23.67;;;11.80;;
57401;SDS011;43226;51.110;6.998;2023-11-18T03:37:16;24.60;;;9.47;;
57401;SDS011;43226;51.110;6.998;2023-11-18T03:39:41;22.50;;;10.17;;
57401;SDS011;43226;51.110;6.998;2023-11-18T03:42:06;9.73;;;5.30;;
57401;SDS011;43226;51.110;6.998;2023-11-18T03:44:33;14.07;;;7.47;;
57401;SDS011;43226;51.110;6.998;2023-11-18T03:46:58;20.70;;;9.80;;
57401;SDS011;43226;51.110;6.998;2023-11-18T03:49:23;18.67;;;9.80;;
57401;SDS011;43226;51.110;6.998;2023-11-18T03:51:49;20.70;;;10.30;;
57401;SDS011;43226;51.110;6.998;2023-11-18T03:54:14;23.63;;;10.10;;
57401;SDS011;43226;51.110;6.998;2023-11-18T03:56:39;23.53;;;9.90;;
57401;SDS011;43226;51.110;6.998;2023-11-18T03:59:04;26.33;;;11.27;;
57401;SDS011;43226;51.110;6.998;2023-11-18T04:01:30;20.87;;;9.07;;
57401;SDS011;43226;51.110;6.998;2023-11-18T04:03:55;21.87;;;9.77;;
57401;SDS011;43226;51.110;6.998;2023-11-18T04:06:21;21.70;;;9.90;;
57401;SDS011;43226;51.110;6.998;2023-11-18T04:08:46;21.33;;;11.53;;
57401;SDS011;43226;51.110;6.998;2023-11-18T04:11:12;22.90;;;9.53;;
57401;SDS011;43226;51.110;6.998;2023-11-18T04:13:39;23.90;;;10.33;;
57401;SDS011;43226;51.110;6.998;2023-11-18T04:16:04;19.23;;;8.80;;
57401;SDS011;43226;51.110;6.998;2023-11-18T04:18:29;24.40;;;10.20;;
57401;SDS011;43226;51.110;6.998;2023-11-18T04:20:55;21.87;;;10.73;;
57401;SDS011;43226;51.110;6.998;2023-11-18T04:23:23;25.27;;;10.83;;
57401;SDS011;43226;51.110;6.998;2023-11-18T04:25:48;23.00;;;9.87;;
57401;SDS011;43226;51.110;6.998;2023-11-18T04:28:13;21.17;;;9.50;;
57401;SDS011;43226;51.110;6.998;2023-11-18T04:30:38;21.70;;;10.97;;
57401;SDS011;43226;51.110;6.998;2023-11-18T04:33:03;23.67;;;10.60;;
57401;SDS011;43226;51.110;6.998;2023-11-18T04:35:29;23.30;;;9.03;;
57401;SDS011;43226;51.110;6.998;2023-11-18T04:37:54;20.67;;;10.37;;
57401;SDS011;43226;51.110;6.998;2023-11-18T04:40:19;18.50;;;10.10;;
57401;SDS011;43226;51.110;6.998;2023-11-18T04:42:44;27.10;;;12.03;;
57401;SDS011;43226;51.110;6.998;2023-11-18T04:45:09;22.13;;;10.23;;
57401;SDS011;43226;51.110;6.998;2023-11-18T04:47:35;26.83;;;10.70;;
57401;SDS011;43226;51.110;6.998;2023-11-18T04:50:01;18.17;;;8.37;;
57401;SDS011;43226;51.110;6.998;2023-11-18T04:52:28;17.57;;;8.60;;
57401;SDS011;43226;51.110;6.998;2023-11-18T04:54:53;31.40;;;11.97;;
57401;SDS011;43226;51.110;6.998;2023-11-18T04:57:19;26.53;;;9.97;;
57401;SDS011;43226;51.110;6.998;2023-11-18T04:59:44;22.50;;;10.10;;
57401;SDS011;43226;51.110;6.998;2023-11-18T05:02:09;22.37;;;10.50;;
57401;SDS011;43226;51.110;6.998;2023-11-18T05:04:34;21.40;;;10.93;;
57401;SDS011;43226;51.110;6.998;2023-11-18T05:07:00;24.77;;;12.07;;
57401;SDS011;43226;51.110;6.998;2023-11-18T05:09:26;26.20;;;10.73;;
57401;SDS011;43226;51.110;6.998;2023-11-18T05:11:51;21.70;;;11.70;;
57401;SDS011;43226;51.110;6.998;2023-11-18T05:14:17;21.33;;;9.87;;
57401;SDS011;43226;51.110;6.998;2023-11-18T05:16:42;20.07;;;10.40;;
57401;SDS011;43226;51.110;6.998;2023-11-18T05:19:07;22.17;;;11.50;;
57401;SDS011;43226;51.110;6.998;2023-11-18T05:21:33;22.53;;;9.80;;
57401;SDS011;43226;51.110;6.998;2023-11-18T05:23:58;24.53;;;11.07;;
57401;SDS011;43226;51.110;6.998;2023-11-18T05:26:23;28.20;;;12.30;;
57401;SDS011;43226;51.110;6.998;2023-11-18T05:28:48;25.83;;;10.40;;
57401;SDS011;43226;51.110;6.998;2023-11-18T05:31:14;23.80;;;11.03;;
57401;SDS011;43226;51.110;6.998;2023-11-18T05:33:40;29.03;;;11.77;;
57401;SDS011;43226;51.110;6.998;2023-11-18T05:36:06;20.07;;;10.57;;
57401;SDS011;43226;51.110;6.998;2023-11-18T05:38:31;22.70;;;10.17;;
57401;SDS011;43226;51.110;6.998;2023-11-18T05:40:59;23.13;;;11.10;;
57401;SDS011;43226;51.110;6.998;2023-11-18T05:43:27;24.37;;;11.40;;
57401;SDS011;43226;51.110;6.998;2023-11-18T05:46:04;22.10;;;11.77;;
57401;SDS011;43226;51.110;6.998;2023-11-18T05:48:45;24.80;;;11.40;;
57401;SDS011;43226;51.110;6.998;2023-11-18T05:51:10;20.10;;;10.30;;
57401;SDS011;43226;51.110;6.998;2023-11-18T05:53:39;30.90;;;10.43;;
57401;SDS011;43226;51.110;6.998;2023-11-18T05:56:05;24.13;;;10.90;;
57401;SDS011;43226;51.110;6.998;2023-11-18T05:58:31;24.53;;;11.27;;
57401;SDS011;43226;51.110;6.998;2023-11-18T06:00:57;23.77;;;9.93;;
57401;SDS011;43226;51.110;6.998;2023-11-18T06:03:22;26.73;;;11.87;;
57401;SDS011;43226;51.110;6.998;2023-11-18T06:05:48;26.53;;;10.77;;
57401;SDS011;43226;51.110;6.998;2023-11-18T06:08:13;21.47;;;9.40;;
57401;SDS011;43226;51.110;6.998;2023-11-18T06:10:39;23.30;;;10.80;;
57401;SDS011;43226;51.110;6.998;2023-11-18T06:13:04;22.47;;;11.80;;
57401;SDS011;43226;51.110;6.998;2023-11-18T06:15:29;24.43;;;10.90;;
57401;SDS011;43226;51.110;6.998;2023-11-18T06:17:54;24.20;;;11.50;;
57401;SDS011;43226;51.110;6.998;2023-11-18T06:20:20;23.93;;;10.53;;
57401;SDS011;43226;51.110;6.998;2023-11-18T06:22:48;25.53;;;11.57;;
57401;SDS011;43226;51.110;6.998;2023-11-18T06:25:14;27.97;;;12.37;;
57401;SDS011;43226;51.110;6.998;2023-11-18T06:27:39;23.70;;;11.63;;
57401;SDS011;43226;51.110;6.998;2023-11-18T06:30:04;22.10;;;10.00;;
57401;SDS011;43226;51.110;6.998;2023-11-18T06:32:31;23.20;;;11.30;;
57401;SDS011;43226;51.110;6.998;2023-11-18T06:34:56;27.33;;;11.57;;
57401;SDS011;43226;51.110;6.998;2023-11-18T06:37:22;24.50;;;11.57;;
57401;SDS011;43226;51.110;6.998;2023-11-18T06:39:47;28.73;;;10.67;;
57401;SDS011;43226;51.110;6.998;2023-11-18T06:42:13;24.27;;;10.67;;
57401;SDS011;43226;51.110;6.998;2023-11-18T06:44:39;24.10;;;11.97;;
57401;SDS011;43226;51.110;6.998;2023-11-18T06:47:04;18.17;;;8.43;;
57401;SDS011;43226;51.110;6.998;2023-11-18T06:49:31;23.83;;;10.40;;
57401;SDS011;43226;51.110;6.998;2023-11-18T06:51:59;29.73;;;10.77;;
57401;SDS011;43226;51.110;6.998;2023-11-18T06:54:27;25.07;;;10.40;;
57401;SDS011;43226;51.110;6.998;2023-11-18T06:56:53;26.70;;;11.57;;
57401;SDS011;43226;51.110;6.998;2023-11-18T06:59:18;19.57;;;10.10;;
57401;SDS011;43226;51.110;6.998;2023-11-18T07:01:43;21.93;;;11.00;;
57401;SDS011;43226;51.110;6.998;2023-11-18T07:04:08;23.87;;;10.17;;
57401;SDS011;43226;51.110;6.998;2023-11-18T07:06:34;23.00;;;10.90;;
57401;SDS011;43226;51.110;6.998;2023-11-18T07:09:03;26.17;;;11.50;;
57401;SDS011;43226;51.110;6.998;2023-11-18T07:11:28;18.97;;;9.47;;
57401;SDS011;43226;51.110;6.998;2023-11-18T07:13:53;20.47;;;10.57;;
57401;SDS011;43226;51.110;6.998;2023-11-18T07:16:22;21.27;;;9.17;;
57401;SDS011;43226;51.110;6.998;2023-11-18T07:18:48;16.97;;;9.73;;
57401;SDS011;43226;51.110;6.998;2023-11-18T07:21:13;12.67;;;7.30;;
57401;SDS011;43226;51.110;6.998;2023-11-18T07:23:39;17.80;;;9.20;;
57401;SDS011;43226;51.110;6.998;2023-11-18T07:26:04;15.70;;;8.57;;
57401;SDS011;43226;51.110;6.998;2023-11-18T07:28:29;16.73;;;8.17;;
57401;SDS011;43226;51.110;6.998;2023-11-18T07:30:56;15.60;;;8.53;;
57401;SDS011;43226;51.110;6.998;2023-11-18T07:33:23;17.27;;;10.37;;
57401;SDS011;43226;51.110;6.998;2023-11-18T07:35:48;31.17;;;10.07;;
57401;SDS011;43226;51.110;6.998;2023-11-18T07:38:13;22.00;;;10.53;;
57401;SDS011;43226;51.110;6.998;2023-11-18T07:40:39;18.40;;;9.40;;
57401;SDS011;43226;51.110;6.998;2023-11-18T07:43:07;15.63;;;8.50;;
57401;SDS011;43226;51.110;6.998;2023-11-18T07:45:36;14.37;;;7.70;;
57401;SDS011;43226;51.110;6.998;2023-11-18T07:48:13;15.30;;;7.67;;
57401;SDS011;43226;51.110;6.998;2023-11-18T07:50:42;20.50;;;8.57;;
57401;SDS011;43226;51.110;6.998;2023-11-18T07:53:07;17.07;;;8.53;;
57401;SDS011;43226;51.110;6.998;2023-11-18T07:55:33;20.23;;;8.30;;
57401;SDS011;43226;51.110;6.998;2023-11-18T07:58:04;18.17;;;9.13;;
57401;SDS011;43226;51.110;6.998;2023-11-18T08:00:29;12.70;;;7.20;;
57401;SDS011;43226;51.110;6.998;2023-11-18T08:02:58;12.70;;;7.47;;
57401;SDS011;43226;51.110;6.998;2023-11-18T08:05:25;21.93;;;8.70;;
57401;SDS011;43226;51.110;6.998;2023-11-18T08:07:50;13.40;;;6.43;;
57401;SDS011;43226;51.110;6.998;2023-11-18T08:10:16;13.27;;;7.10;;
57401;SDS011;43226;51.110;6.998;2023-11-18T08:12:44;11.80;;;7.27;;
57401;SDS011;43226;51.110;6.998;2023-11-18T08:15:09;14.37;;;6.47;;
57401;SDS011;43226;51.110;6.998;2023-11-18T08:17:35;13.10;;;6.20;;
57401;SDS011;43226;51.110;6.998;2023-11-18T08:20:00;12.67;;;6.90;;
57401;SDS011;43226;51.110;6.998;2023-11-18T08:22:25;11.93;;;7.43;;
57401;SDS011;43226;51.110;6.998;2023-11-18T08:24:50;10.67;;;6.70;;
57401;SDS011;43226;51.110;6.998;2023-11-18T08:27:16;15.37;;;8.00;;
57401;SDS011;43226;51.110;6.998;2023-11-18T08:29:41;12.90;;;8.13;;
57401;SDS011;43226;51.110;6.998;2023-11-18T08:32:06;14.20;;;6.67;;
57401;SDS011;43226;51.110;6.998;2023-11-18T08:34:34;12.63;;;6.37;;
57401;SDS011;43226;51.110;6.998;2023-11-18T08:37:00;13.37;;;6.10;;
57401;SDS011;43226;51.110;6.998;2023-11-18T08:39:26;13.40;;;6.00;;
57401;SDS011;43226;51.110;6.998;2023-11-18T08:41:54;10.23;;;6.10;;
57401;SDS011;43226;51.110;6.998;2023-11-18T08:44:19;13.83;;;6.00;;
57401;SDS011;43226;51.110;6.998;2023-11-18T08:46:44;10.10;;;6.20;;
57401;SDS011;43226;51.110;6.998;2023-11-18T08:49:09;8.73;;;5.60;;
57401;SDS011;43226;51.110;6.998;2023-11-18T08:51:36;12.03;;;7.10;;
57401;SDS011;43226;51.110;6.998;2023-11-18T08:54:02;13.87;;;6.63;;
57401;SDS011;43226;51.110;6.998;2023-11-18T08:56:33;11.43;;;6.57;;
57401;SDS011;43226;51.110;6.998;2023-11-18T08:58:59;10.60;;;5.80;;
57401;SDS011;43226;51.110;6.998;2023-11-18T09:01:25;11.53;;;4.90;;
57401;SDS011;43226;51.110;6.998;2023-11-18T09:03:53;15.00;;;6.27;;
57401;SDS011;43226;51.110;6.998;2023-11-18T09:06:18;12.50;;;5.60;;
57401;SDS011;43226;51.110;6.998;2023-11-18T09:08:44;11.20;;;5.80;;
57401;SDS011;43226;51.110;6.998;2023-11-18T09:11:10;12.37;;;6.40;;
57401;SDS011;43226;51.110;6.998;2023-11-18T09:13:36;10.47;;;5.93;;
57401;SDS011;43226;51.110;6.998;2023-11-18T09:16:02;13.93;;;6.73;;
57401;SDS011;43226;51.110;6.998;2023-11-18T09:18:29;14.43;;;7.53;;
57401;SDS011;43226;51.110;6.998;2023-11-18T09:20:55;12.57;;;7.20;;
57401;SDS011;43226;51.110;6.998;2023-11-18T09:23:24;10.70;;;6.10;;
57401;SDS011;43226;51.110;6.998;2023-11-18T09:25:50;15.70;;;7.07;;
57401;SDS011;43226;51.110;6.998;2023-11-18T09:28:15;11.50;;;5.97;;
57401;SDS011;43226;51.110;6.998;2023-11-18T09:30:45;10.17;;;6.40;;
57401;SDS011;43226;51.110;6.998;2023-11-18T09:33:22;9.03;;;5.10;;
57401;SDS011;43226;51.110;6.998;2023-11-18T09:35:54;9.67;;;6.43;;
57401;SDS011;43226;51.110;6.998;2023-11-18T09:38:23;12.67;;;6.33;;
57401;SDS011;43226;51.110;6.998;2023-11-18T09:40:49;10.13;;;6.03;;
57401;SDS011;43226;51.110;6.998;2023-11-18T09:43:14;10.93;;;6.50;;
57401;SDS011;43226;51.110;6.998;2023-11-18T09:45:43;14.23;;;6.13;;
57401;SDS011;43226;51.110;6.998;2023-11-18T09:48:08;18.97;;;6.50;;
57401;SDS011;43226;51.110;6.998;2023-11-18T09:50:34;8.47;;;5.57;;
57401;SDS011;43226;51.110;6.998;2023-11-18T09:53:03;14.33;;;5.80;;
57401;SDS011;43226;51.110;6.998;2023-11-18T09:55:42;11.53;;;6.10;;
57401;SDS011;43226;51.110;6.998;2023-11-18T09:58:09;11.93;;;5.90;;
57401;SDS011;43226;51.110;6.998;2023-11-18T10:00:38;10.30;;;6.20;;
57401;SDS011;43226;51.110;6.998;2023-11-18T10:03:06;12.57;;;7.00;;
57401;SDS011;43226;51.110;6.998;2023-11-18T10:05:33;11.00;;;5.47;;
57401;SDS011;43226;51.110;6.998;2023-11-18T10:08:01;10.03;;;5.93;;
57401;SDS011;43226;51.110;6.998;2023-11-18T10:10:30;9.07;;;5.80;;
57401;SDS011;43226;51.110;6.998;2023-11-18T10:13:01;7.30;;;4.67;;
57401;SDS011;43226;51.110;6.998;2023-11-18T10:15:29;10.80;;;4.93;;
57401;SDS011;43226;51.110;6.998;2023-11-18T10:17:56;8.80;;;5.10;;
57401;SDS011;43226;51.110;6.998;2023-11-18T10:23:09;12.93;;;5.10;;
57401;SDS011;43226;51.110;6.998;2023-11-18T10:25:36;7.80;;;5.03;;
57401;SDS011;43226;51.110;6.998;2023-11-18T10:28:05;11.90;;;6.37;;
57401;SDS011;43226;51.110;6.998;2023-11-18T10:30:30;10.63;;;4.87;;
57401;SDS011;43226;51.110;6.998;2023-11-18T10:32:59;9.63;;;4.97;;
57401;SDS011;43226;51.110;6.998;2023-11-18T10:35:34;12.03;;;5.73;;
57401;SDS011;43226;51.110;6.998;2023-11-18T10:38:02;8.03;;;5.63;;
57401;SDS011;43226;51.110;6.998;2023-11-18T10:40:31;9.67;;;5.00;;
57401;SDS011;43226;51.110;6.998;2023-11-18T10:43:00;6.87;;;4.03;;
57401;SDS011;43226;51.110;6.998;2023-11-18T10:45:26;8.53;;;5.57;;
57401;SDS011;43226;51.110;6.998;2023-11-18T10:47:52;6.50;;;4.30;;
57401;SDS011;43226;51.110;6.998;2023-11-18T10:50:21;10.53;;;5.20;;
57401;SDS011;43226;51.110;6.998;2023-11-18T10:52:49;10.40;;;5.40;;
57401;SDS011;43226;51.110;6.998;2023-11-18T10:55:16;9.70;;;4.90;;
57401;SDS011;43226;51.110;6.998;2023-11-18T10:57:44;6.37;;;3.73;;
57401;SDS011;43226;51.110;6.998;2023-11-18T11:00:09;7.80;;;4.43;;
57401;SDS011;43226;51.110;6.998;2023-11-18T11:02:44;8.13;;;3.70;;
57401;SDS011;43226;51.110;6.998;2023-11-18T11:05:09;5.03;;;3.70;;
57401;SDS011;43226;51.110;6.998;2023-11-18T11:07:44;8.33;;;3.67;;
57401;SDS011;43226;51.110;6.998;2023-11-18T11:10:13;3.60;;;3.30;;
57401;SDS011;43226;51.110;6.998;2023-11-18T11:13:00;8.30;;;3.80;;
57401;SDS011;43226;51.110;6.998;2023-11-18T11:15:29;6.53;;;3.60;;
57401;SDS011;43226;51.110;6.998;2023-11-18T11:17:54;7.57;;;4.20;;
57401;SDS011;43226;51.110;6.998;2023-11-18T11:20:27;6.03;;;3.10;;
57401;SDS011;43226;51.110;6.998;2023-11-18T11:28:04;7.73;;;4.03;;
57401;SDS011;43226;51.110;6.998;2023-11-18T11:30:40;6.07;;;4.47;;
57401;SDS011;43226;51.110;6.998;2023-11-18T11:35:56;7.60;;;4.03;;
57401;SDS011;43226;51.110;6.998;2023-11-18T11:38:24;6.67;;;2.93;;
57401;SDS011;43226;51.110;6.998;2023-11-18T11:40:51;5.80;;;3.40;;
57401;SDS011;43226;51.110;6.998;2023-11-18T11:43:19;6.00;;;3.40;;
57401;SDS011;43226;51.110;6.998;2023-11-18T11:45:53;4.97;;;3.63;;
57401;SDS011;43226;51.110;6.998;2023-11-18T11:48:24;4.97;;;3.83;;
57401;SDS011;43226;51.110;6.998;2023-11-18T11:51:21;5.00;;;3.73;;
57401;SDS011;43226;51.110;6.998;2023-11-18T11:54:09;6.60;;;3.83;;
57401;SDS011;43226;51.110;6.998;2023-11-18T11:56:43;7.63;;;3.93;;
57401;SDS011;43226;51.110;6.998;2023-11-18T11:59:11;8.20;;;4.57;;
57401;SDS011;43226;51.110;6.998;2023-11-18T12:01:36;6.03;;;4.07;;
57401;SDS011;43226;51.110;6.998;2023-11-18T12:04:08;6.30;;;4.50;;
57401;SDS011;43226;51.110;6.998;2023-11-18T12:06:41;9.60;;;4.47;;
57401;SDS011;43226;51.110;6.998;2023-11-18T12:09:08;7.20;;;4.27;;
57401;SDS011;43226;51.110;6.998;2023-11-18T12:11:34;5.13;;;3.63;;
57401;SDS011;43226;51.110;6.998;2023-11-18T12:14:11;7.30;;;4.10;;
57401;SDS011;43226;51.110;6.998;2023-11-18T12:17:07;9.23;;;3.80;;
57401;SDS011;43226;51.110;6.998;2023-11-18T12:19:38;4.37;;;3.37;;
57401;SDS011;43226;51.110;6.998;2023-11-18T12:22:12;13.77;;;4.47;;
57401;SDS011;43226;51.110;6.998;2023-11-18T12:35:20;6.20;;;3.80;;
57401;SDS011;43226;51.110;6.998;2023-11-18T12:43:16;8.53;;;4.23;;
57401;SDS011;43226;51.110;6.998;2023-11-18T12:48:16;10.07;;;4.90;;
57401;SDS011;43226;51.110;6.998;2023-11-18T12:50:49;7.80;;;3.47;;
57401;SDS011;43226;51.110;6.998;2023-11-18T12:53:15;8.40;;;4.37;;
57401;SDS011;43226;51.110;6.998;2023-11-18T12:55:43;7.17;;;4.40;;
57401;SDS011;43226;51.110;6.998;2023-11-18T12:58:09;6.50;;;4.30;;
57401;SDS011;43226;51.110;6.998;2023-11-18T13:00:36;8.00;;;4.87;;
57401;SDS011;43226;51.110;6.998;2023-11-18T13:03:01;9.13;;;4.20;;
57401;SDS011;43226;51.110;6.998;2023-11-18T13:05:27;5.50;;;4.37;;
57401;SDS011;43226;51.110;6.998;2023-11-18T13:07:55;7.97;;;5.73;;
57401;SDS011;43226;51.110;6.998;2023-11-18T13:10:21;5.43;;;3.70;;
57401;SDS011;43226;51.110;6.998;2023-11-18T13:12:47;7.07;;;4.50;;
57401;SDS011;43226;51.110;6.998;2023-11-18T13:15:12;10.80;;;5.60;;
57401;SDS011;43226;51.110;6.998;2023-11-18T13:17:37;7.67;;;4.77;;
57401;SDS011;43226;51.110;6.998;2023-11-18T13:20:12;5.73;;;3.97;;
57401;SDS011;43226;51.110;6.998;2023-11-18T13:22:38;6.43;;;4.37;;
57401;SDS011;43226;51.110;6.998;2023-11-18T13:25:05;6.97;;;3.77;;
57401;SDS011;43226;51.110;6.998;2023-11-18T13:27:30;8.17;;;4.30;;
57401;SDS011;43226;51.110;6.998;2023-11-18T13:29:57;10.07;;;4.83;;
57401;SDS011;43226;51.110;6.998;2023-11-18T13:32:22;14.37;;;8.00;;
57401;SDS011;43226;51.110;6.998;2023-11-18T13:34:51;7.30;;;5.37;;
57401;SDS011;43226;51.110;6.998;2023-11-18T13:37:17;11.70;;;5.10;;
57401;SDS011;43226;51.110;6.998;2023-11-18T13:39:45;9.43;;;4.07;;
57401;SDS011;43226;51.110;6.998;2023-11-18T13:42:19;5.27;;;3.43;;
57401;SDS011;43226;51.110;6.998;2023-11-18T13:44:45;6.57;;;3.63;;
57401;SDS011;43226;51.110;6.998;2023-11-18T13:47:11;6.47;;;5.03;;
57401;SDS011;43226;51.110;6.998;2023-11-18T13:49:37;5.27;;;3.50;;
57401;SDS011;43226;51.110;6.998;2023-11-18T13:52:05;7.70;;;3.27;;
57401;SDS011;43226;51.110;6.998;2023-11-18T13:54:36;5.70;;;3.47;;
57401;SDS011;43226;51.110;6.998;2023-11-18T13:57:02;13.10;;;3.60;;
57401;SDS011;43226;51.110;6.998;2023-11-18T13:59:28;4.37;;;2.33;;
57401;SDS011;43226;51.110;6.998;2023-11-18T14:01:53;2.73;;;2.53;;
57401;SDS011;43226;51.110;6.998;2023-11-18T14:04:29;9.73;;;3.50;;
57401;SDS011;43226;51.110;6.998;2023-11-18T14:06:57;5.53;;;2.97;;
57401;SDS011;43226;51.110;6.998;2023-11-18T14:09:24;2.47;;;2.07;;
57401;SDS011;43226;51.110;6.998;2023-11-18T14:11:55;8.10;;;4.17;;
57401;SDS011;43226;51.110;6.998;2023-11-18T14:14:24;6.47;;;2.50;;
57401;SDS011;43226;51.110;6.998;2023-11-18T14:16:53;2.83;;;2.60;;
57401;SDS011;43226;51.110;6.998;2023-11-18T14:19:22;3.73;;;2.20;;
57401;SDS011;43226;51.110;6.998;2023-11-18T14:21:49;4.53;;;2.60;;
57401;SDS011;43226;51.110;6.998;2023-11-18T14:24:15;2.10;;;1.90;;
57401;SDS011;43226;51.110;6.998;2023-11-18T14:26:46;3.53;;;2.37;;
57401;SDS011;43226;51.110;6.998;2023-11-18T14:29:12;3.63;;;2.07;;
57401;SDS011;43226;51.110;6.998;2023-11-18T14:31:38;6.83;;;4.00;;
57401;SDS011;43226;51.110;6.998;2023-11-18T14:34:12;7.40;;;3.60;;
57401;SDS011;43226;51.110;6.998;2023-11-18T14:36:37;7.43;;;3.30;;
57401;SDS011;43226;51.110;6.998;2023-11-18T14:39:03;4.60;;;3.20;;
57401;SDS011;43226;51.110;6.998;2023-11-18T14:41:29;3.40;;;3.10;;
57401;SDS011;43226;51.110;6.998;2023-11-18T14:43:56;5.13;;;2.90;;
57401;SDS011;43226;51.110;6.998;2023-11-18T14:46:23;9.43;;;3.57;;
57401;SDS011;43226;51.110;6.998;2023-11-18T14:48:48;2.90;;;2.60;;
57401;SDS011;43226;51.110;6.998;2023-11-18T14:51:14;4.07;;;2.73;;
57401;SDS011;43226;51.110;6.998;2023-11-18T14:53:39;22.03;;;4.00;;
57401;SDS011;43226;51.110;6.998;2023-11-18T14:56:05;17.70;;;9.40;;
57401;SDS011;43226;51.110;6.998;2023-11-18T14:58:30;8.63;;;4.03;;
57401;SDS011;43226;51.110;6.998;2023-11-18T15:00:55;6.43;;;4.33;;
57401;SDS011;43226;51.110;6.998;2023-11-18T15:03:22;3.70;;;2.67;;
57401;SDS011;43226;51.110;6.998;2023-11-18T15:05:47;5.90;;;3.83;;